Time;durP1;ratioP1;P1;durP2;ratioP2;P2;SDS_P1;SDS_P2;PMS_P1;PMS_P2;Temp;Humidity;BMP_temperature;BMP_pressure;BME280_temperature;BME280_humidity;BME280_pressure;Samples;Min_cycle;Max_cycle;Signal;HPM_P1;HPM_P2
2023/11/20 00:01:49;;;;;;;0.90;0.90;;;;;;;12.15;100.00;96138.50;5037187;28;20193;-68
2023/11/20 00:04:18;;;;;;;1.03;0.70;;;;;;;12.29;100.00;96133.13;5037355;28;20248;-69
2023/11/20 00:06:44;;;;;;;0.77;0.77;;;;;;;12.22;100.00;96124.34;5037889;28;20197;-68
2023/11/20 00:09:11;;;;;;;0.60;0.60;;;;;;;12.05;100.00;96122.13;5036873;28;20197;-68
2023/11/20 00:11:37;;;;;;;0.73;0.70;;;;;;;12.16;100.00;96115.31;5036695;28;20212;-69
2023/11/20 00:14:04;;;;;;;0.63;0.50;;;;;;;12.14;100.00;96110.44;5038058;28;20818;-69
2023/11/20 00:16:30;;;;;;;0.53;0.50;;;;;;;12.09;100.00;96110.19;5036522;28;20262;-68
2023/11/20 00:18:57;;;;;;;1.60;1.03;;;;;;;12.08;100.00;96112.00;5036246;28;20197;-68
2023/11/20 00:21:25;;;;;;;0.97;0.80;;;;;;;12.16;100.00;96110.03;5037107;28;20212;-68
2023/11/20 00:23:51;;;;;;;1.30;0.80;;;;;;;11.94;100.00;96106.78;5037066;28;20236;-69
2023/11/20 00:26:18;;;;;;;1.03;0.60;;;;;;;11.87;100.00;96104.06;5036088;28;20205;-67
2023/11/20 00:28:44;;;;;;;7.67;0.80;;;;;;;12.00;100.00;96116.59;5037557;28;20202;-67
2023/11/20 00:31:15;;;;;;;0.40;0.40;;;;;;;12.16;100.00;96111.06;5036770;28;20870;-68
2023/11/20 00:33:41;;;;;;;1.33;0.80;;;;;;;12.06;100.00;96118.50;5036640;28;20719;-68
2023/11/20 00:36:09;;;;;;;0.50;0.50;;;;;;;12.10;100.00;96132.94;5036864;28;20241;-69
2023/11/20 00:38:37;;;;;;;1.63;0.80;;;;;;;12.04;100.00;96131.06;5036828;28;20204;-68
2023/11/20 00:41:04;;;;;;;3.57;0.80;;;;;;;11.89;100.00;96130.28;5036362;28;20209;-68
2023/11/20 00:43:31;;;;;;;0.87;0.50;;;;;;;11.93;100.00;96132.38;5036479;28;20202;-68
2023/11/20 00:45:58;;;;;;;1.03;0.70;;;;;;;11.89;100.00;96133.75;5036461;28;20607;-68
2023/11/20 00:48:24;;;;;;;2.57;0.80;;;;;;;11.85;100.00;96135.13;5036525;28;20201;-68
2023/11/20 00:50:51;;;;;;;1.67;0.57;;;;;;;11.89;100.00;96130.28;5036721;28;20205;-68
2023/11/20 00:53:17;;;;;;;0.80;0.80;;;;;;;11.76;100.00;96140.69;5036577;28;20201;-68
2023/11/20 00:55:45;;;;;;;1.30;0.60;;;;;;;11.97;100.00;96143.38;5035627;28;20261;-68
2023/11/20 00:58:12;;;;;;;2.20;0.60;;;;;;;11.84;100.00;96145.91;5036742;28;20212;-68
2023/11/20 01:00:38;;;;;;;0.80;0.60;;;;;;;11.82;100.00;96147.88;5036296;28;20698;-69
2023/11/20 01:03:05;;;;;;;1.33;0.70;;;;;;;11.88;100.00;96145.31;5036279;28;20201;-68
2023/11/20 01:05:31;;;;;;;1.27;1.00;;;;;;;11.93;100.00;96142.13;5034912;28;20230;-68
2023/11/20 01:07:58;;;;;;;5.57;0.90;;;;;;;11.88;100.00;96144.50;5037048;28;20204;-69
2023/11/20 01:10:24;;;;;;;2.73;0.63;;;;;;;11.82;100.00;96143.41;5036279;28;20204;-68
2023/11/20 01:12:52;;;;;;;3.13;0.90;;;;;;;12.06;100.00;96143.06;5035796;28;20204;-69
2023/11/20 01:15:19;;;;;;;0.70;0.70;;;;;;;11.78;100.00;96141.34;5035557;28;20314;-68
2023/11/20 01:17:45;;;;;;;0.60;0.60;;;;;;;11.54;100.00;96154.88;5036197;28;20225;-68
2023/11/20 01:20:13;;;;;;;3.60;0.60;;;;;;;11.61;100.00;96145.22;5035725;28;20840;-68
2023/11/20 01:22:40;;;;;;;3.70;0.87;;;;;;;11.52;100.00;96146.34;5035820;28;20205;-68
2023/11/20 01:25:07;;;;;;;0.80;0.63;;;;;;;11.68;100.00;96132.91;5036266;28;20247;-68
2023/11/20 01:27:33;;;;;;;1.63;0.60;;;;;;;11.63;100.00;96141.41;5035826;28;20206;-67
2023/11/20 01:30:01;;;;;;;6.43;1.00;;;;;;;11.70;100.00;96138.81;5035896;28;20687;-68
2023/11/20 01:32:28;;;;;;;0.70;0.70;;;;;;;11.62;100.00;96137.13;5036208;28;20201;-68
2023/11/20 01:34:54;;;;;;;3.80;1.10;;;;;;;11.75;100.00;96149.66;5035223;28;20714;-68
2023/11/20 01:37:21;;;;;;;1.00;0.90;;;;;;;11.70;100.00;96152.03;5035471;28;20276;-68
2023/11/20 01:39:47;;;;;;;1.07;0.80;;;;;;;11.74;100.00;96161.19;5036269;28;20202;-68
2023/11/20 01:42:13;;;;;;;0.50;0.50;;;;;;;11.48;100.00;96158.22;5035910;28;20205;-68
2023/11/20 01:44:40;;;;;;;1.30;0.63;;;;;;;11.77;100.00;96155.53;5034884;28;20220;-69
2023/11/20 01:47:08;;;;;;;0.60;0.60;;;;;;;11.90;100.00;96155.69;5036495;28;20201;-68
2023/11/20 01:49:35;;;;;;;1.70;0.70;;;;;;;11.76;100.00;96159.19;5035576;28;20803;-68
2023/11/20 01:52:02;;;;;;;1.43;0.57;;;;;;;11.49;100.00;96151.94;5035188;28;20745;-69
2023/11/20 01:54:31;;;;;;;5.07;1.00;;;;;;;11.66;100.00;96150.75;5035473;28;20244;-68
2023/11/20 01:56:58;;;;;;;0.60;0.60;;;;;;;11.76;100.00;96143.34;5035284;28;20308;-68
2023/11/20 01:59:25;;;;;;;1.70;0.77;;;;;;;11.71;100.00;96146.56;5035365;28;20578;-68
2023/11/20 02:01:52;;;;;;;2.67;0.60;;;;;;;11.71;100.00;96137.78;5035559;28;20224;-68
2023/11/20 02:04:24;;;;;;;1.93;0.70;;;;;;;11.88;100.00;96140.03;5035228;28;20232;-68
2023/11/20 02:06:50;;;;;;;2.30;0.97;;;;;;;11.79;100.00;96143.00;5034673;28;21079;-68
2023/11/20 02:09:18;;;;;;;1.20;0.60;;;;;;;11.79;100.00;96143.78;5035317;28;21107;-68
2023/11/20 02:11:45;;;;;;;1.70;0.97;;;;;;;11.81;100.00;96143.59;5035524;28;21246;-68
2023/11/20 02:14:13;;;;;;;1.57;0.60;;;;;;;11.76;100.00;96132.78;5035168;28;20224;-69
2023/11/20 02:16:40;;;;;;;0.80;0.70;;;;;;;11.69;100.00;96132.72;5034887;28;20221;-69
2023/11/20 02:19:13;;;;;;;1.10;0.80;;;;;;;11.87;100.00;96134.94;5037371;28;20201;-68
2023/11/20 02:21:41;;;;;;;2.17;1.10;;;;;;;11.91;100.00;96136.19;5038972;28;20201;-69
2023/11/20 02:24:08;;;;;;;4.37;1.27;;;;;;;11.82;100.00;96127.56;5038544;28;20236;-69
2023/11/20 02:26:51;;;;;;;1.57;0.60;;;;;;;11.81;100.00;96127.75;5039213;28;20777;-68
2023/11/20 02:29:24;;;;;;;3.47;1.00;;;;;;;11.88;100.00;96126.03;5039161;28;20294;-68
2023/11/20 02:31:52;;;;;;;2.20;0.73;;;;;;;11.75;100.00;96110.06;5038747;28;20201;-69
2023/11/20 02:34:19;;;;;;;1.70;0.70;;;;;;;11.37;100.00;96102.47;5038726;28;20225;-68
2023/11/20 02:36:45;;;;;;;1.00;0.90;;;;;;;11.26;100.00;96102.94;5038918;28;20232;-68
2023/11/20 02:39:12;;;;;;;1.83;0.77;;;;;;;11.16;100.00;96102.41;5038571;28;20212;-68
2023/11/20 02:41:39;;;;;;;3.57;1.10;;;;;;;11.01;100.00;96110.31;5039276;28;20228;-68
2023/11/20 02:44:06;;;;;;;1.13;0.77;;;;;;;11.23;100.00;96098.84;5038976;28;20225;-68
2023/11/20 02:46:33;;;;;;;1.20;0.60;;;;;;;11.19;100.00;96102.84;5037993;28;20209;-68
2023/11/20 02:49:00;;;;;;;1.63;0.73;;;;;;;11.29;100.00;96094.66;5039283;28;20201;-69
2023/11/20 02:51:27;;;;;;;1.23;0.70;;;;;;;11.18;100.00;96100.41;5039111;28;20220;-68
2023/11/20 02:53:54;;;;;;;3.10;0.70;;;;;;;11.16;100.00;96107.66;5038446;28;20233;-69
2023/11/20 02:56:21;;;;;;;0.93;0.70;;;;;;;11.30;100.00;96099.75;5038550;28;20216;-68
2023/11/20 02:58:47;;;;;;;3.57;0.87;;;;;;;11.36;100.00;96109.56;5038927;28;20287;-68
2023/11/20 03:01:15;;;;;;;0.70;0.70;;;;;;;11.44;100.00;96106.81;5038448;28;20205;-69
2023/11/20 03:03:41;;;;;;;1.47;1.03;;;;;;;11.29;100.00;96100.75;5038187;28;20193;-68
2023/11/20 03:06:09;;;;;;;1.07;0.70;;;;;;;11.51;100.00;96099.81;5038412;28;20229;-69
2023/11/20 03:08:36;;;;;;;0.80;0.53;;;;;;;11.33;100.00;96095.91;5038744;28;20281;-68
2023/11/20 03:11:04;;;;;;;1.37;0.90;;;;;;;11.28;100.00;96099.13;5038434;28;20204;-68
2023/11/20 03:13:30;;;;;;;1.17;0.70;;;;;;;10.98;100.00;96096.69;5038504;28;20209;-68
2023/11/20 03:15:57;;;;;;;0.93;0.83;;;;;;;11.22;100.00;96099.03;5035727;28;20665;-67
2023/11/20 03:18:23;;;;;;;0.73;0.60;;;;;;;11.16;100.00;96111.16;5037918;28;20294;-68
2023/11/20 03:20:50;;;;;;;1.33;0.73;;;;;;;11.23;100.00;96096.22;5038393;28;21283;-68
2023/11/20 03:23:17;;;;;;;1.07;0.93;;;;;;;11.30;100.00;96099.75;5038300;28;20205;-68
2023/11/20 03:25:44;;;;;;;0.93;0.80;;;;;;;11.26;100.00;96095.03;5038026;28;20690;-68
2023/11/20 03:28:11;;;;;;;0.60;0.60;;;;;;;11.32;100.00;96089.81;5038933;28;20216;-68
2023/11/20 03:30:37;;;;;;;1.17;0.80;;;;;;;11.14;100.00;96099.16;5036766;28;20267;-69
2023/11/20 03:33:04;;;;;;;1.20;0.80;;;;;;;11.12;100.00;96086.13;5038127;28;20711;-69
2023/11/20 03:35:30;;;;;;;2.03;0.80;;;;;;;11.11;100.00;96076.59;5037921;28;20229;-69
2023/11/20 03:37:57;;;;;;;0.90;0.77;;;;;;;11.05;100.00;96089.69;5038989;28;20224;-69
2023/11/20 03:40:25;;;;;;;2.67;0.80;;;;;;;11.29;100.00;96086.72;5038268;28;20223;-68
2023/11/20 03:42:51;;;;;;;1.63;1.00;;;;;;;11.08;100.00;96084.84;5037752;28;20212;-68
2023/11/20 03:45:17;;;;;;;0.70;0.70;;;;;;;11.12;100.00;96080.84;5037383;28;20221;-68
2023/11/20 03:47:44;;;;;;;3.00;0.87;;;;;;;11.28;100.00;96085.13;5038491;28;20193;-67
2023/11/20 03:50:11;;;;;;;1.80;0.83;;;;;;;11.25;100.00;96074.91;5038278;28;20198;-68
2023/11/20 03:52:37;;;;;;;3.37;1.07;;;;;;;11.28;100.00;96075.38;5037651;28;20201;-68
2023/11/20 03:55:04;;;;;;;1.00;0.70;;;;;;;11.23;100.00;96067.19;5037556;28;20228;-68
2023/11/20 03:57:32;;;;;;;3.27;0.70;;;;;;;11.40;100.00;96075.72;5037422;28;20225;-69
2023/11/20 03:59:59;;;;;;;1.23;0.87;;;;;;;11.34;100.00;96074.66;5038349;28;20205;-69
2023/11/20 04:02:25;;;;;;;2.40;0.80;;;;;;;11.45;100.00;96076.78;5037560;28;20201;-69
2023/11/20 04:04:52;;;;;;;2.67;1.00;;;;;;;11.30;100.00;96081.28;5037101;28;20240;-67
2023/11/20 04:07:19;;;;;;;1.20;0.80;;;;;;;11.40;100.00;96076.50;5038175;28;20215;-69
2023/11/20 04:09:46;;;;;;;1.17;1.00;;;;;;;11.15;100.00;96067.31;5037874;28;20975;-67
2023/11/20 04:12:12;;;;;;;1.80;0.90;;;;;;;11.18;100.00;96069.56;5037412;28;20208;-67
2023/11/20 04:14:40;;;;;;;1.67;1.00;;;;;;;11.44;100.00;96075.13;5036837;28;20225;-68
2023/11/20 04:17:07;;;;;;;1.60;0.80;;;;;;;11.27;100.00;96072.94;5037855;28;20706;-68
2023/11/20 04:19:34;;;;;;;1.83;0.90;;;;;;;11.33;100.00;96065.09;5037230;28;20239;-67
2023/11/20 04:22:00;;;;;;;0.73;0.70;;;;;;;11.27;100.00;96062.38;5037177;28;20197;-68
2023/11/20 04:24:27;;;;;;;1.40;0.90;;;;;;;11.29;100.00;96066.47;5037173;28;21189;-68
2023/11/20 04:26:53;;;;;;;1.20;0.90;;;;;;;11.29;100.00;96068.25;5036659;28;20207;-69
2023/11/20 04:29:19;;;;;;;1.63;1.10;;;;;;;11.31;100.00;96064.44;5037356;28;20213;-67
2023/11/20 04:31:47;;;;;;;0.77;0.57;;;;;;;11.50;100.00;96068.34;5037221;28;20961;-68
2023/11/20 04:34:14;;;;;;;1.37;0.97;;;;;;;11.21;100.00;96063.09;5036679;28;20228;-69
2023/11/20 04:36:40;;;;;;;1.83;1.50;;;;;;;11.04;100.00;96059.84;5036004;28;20201;-68
2023/11/20 04:39:07;;;;;;;1.87;0.97;;;;;;;11.09;100.00;96054.84;5037377;28;20221;-68
2023/11/20 04:41:34;;;;;;;0.73;0.73;;;;;;;10.93;100.00;96050.78;5036130;28;20201;-67
2023/11/20 04:44:00;;;;;;;0.90;0.80;;;;;;;11.00;100.00;96061.22;5036088;28;20197;-67
2023/11/20 04:46:27;;;;;;;2.50;0.90;;;;;;;11.06;100.00;96065.78;5036816;28;20580;-68
2023/11/20 04:48:55;;;;;;;1.10;1.00;;;;;;;11.09;100.00;96068.03;5036938;28;20278;-68
2023/11/20 04:51:22;;;;;;;1.00;0.80;;;;;;;11.05;100.00;96055.41;5035895;28;20392;-69
2023/11/20 04:53:49;;;;;;;1.00;0.80;;;;;;;11.18;100.00;96063.50;5036059;28;20209;-68
2023/11/20 04:56:16;;;;;;;0.70;0.70;;;;;;;11.13;100.00;96053.47;5036889;28;20216;-69
2023/11/20 04:58:44;;;;;;;3.03;0.80;;;;;;;11.29;100.00;96063.00;5036557;28;20235;-68
2023/11/20 05:01:13;;;;;;;4.43;2.53;;;;;;;11.25;100.00;96062.56;5036143;28;20205;-68
2023/11/20 05:03:40;;;;;;;1.17;1.00;;;;;;;11.30;100.00;96056.72;5036514;28;20671;-68
2023/11/20 05:06:09;;;;;;;1.40;0.90;;;;;;;11.29;100.00;96060.34;5036423;28;20233;-68
2023/11/20 05:08:36;;;;;;;2.33;1.33;;;;;;;11.19;100.00;96058.03;5036343;28;20205;-69
2023/11/20 05:11:03;;;;;;;2.63;1.57;;;;;;;11.19;100.00;96060.66;5036699;28;21090;-69
2023/11/20 05:13:30;;;;;;;4.27;1.40;;;;;;;11.08;100.00;96057.69;5035919;28;20717;-68
2023/11/20 05:15:56;;;;;;;4.60;1.60;;;;;;;11.24;100.00;96060.91;5035754;28;20232;-67
2023/11/20 05:18:23;;;;;;;2.80;1.70;;;;;;;11.29;100.00;96057.72;5035856;28;20221;-68
2023/11/20 05:20:49;;;;;;;4.13;2.33;;;;;;;11.29;100.00;96061.19;5036225;28;20703;-68
2023/11/20 05:23:17;;;;;;;6.47;2.20;;;;;;;11.42;100.00;96058.69;5035628;28;20284;-68
2023/11/20 05:25:43;;;;;;;6.50;2.23;;;;;;;11.33;100.00;96064.25;5035365;28;20225;-68
2023/11/20 05:28:10;;;;;;;5.83;2.63;;;;;;;11.33;100.00;96064.25;5036476;28;20208;-67
2023/11/20 05:30:37;;;;;;;4.70;2.37;;;;;;;11.19;100.00;96065.94;5035153;28;20205;-67
2023/11/20 05:33:04;;;;;;;4.23;2.67;;;;;;;11.13;100.00;96060.59;5035708;28;20197;-69
2023/11/20 05:35:30;;;;;;;4.60;2.40;;;;;;;11.28;100.00;96061.38;5035685;28;20225;-68
2023/11/20 05:37:57;;;;;;;2.87;2.20;;;;;;;11.25;100.00;96051.19;5035595;28;20404;-69
2023/11/20 05:40:25;;;;;;;5.23;2.60;;;;;;;11.23;100.00;96056.66;5036225;28;20216;-68
2023/11/20 05:42:51;;;;;;;4.97;2.53;;;;;;;11.01;100.00;96054.97;5036116;28;20201;-69
2023/11/20 05:45:18;;;;;;;4.67;2.80;;;;;;;10.85;100.00;96061.44;5034832;28;20225;-67
2023/11/20 05:47:44;;;;;;;4.20;2.50;;;;;;;10.83;100.00;96058.97;5035633;28;20689;-68
2023/11/20 05:50:11;;;;;;;8.47;3.40;;;;;;;11.01;100.00;96057.59;5036259;28;20561;-68
2023/11/20 05:52:38;;;;;;;35.87;12.23;;;;;;;10.94;100.00;96048.78;5035390;28;20209;-68
2023/11/20 05:55:06;;;;;;;28.93;8.57;;;;;;;11.07;100.00;96056.88;5038626;28;20224;-69
2023/11/20 05:57:34;;;;;;;16.37;6.20;;;;;;;11.18;100.00;96060.84;5040440;28;20228;-69
2023/11/20 06:00:00;;;;;;;12.87;4.90;;;;;;;11.03;100.00;96058.22;5040370;28;20229;-68
2023/11/20 06:02:27;;;;;;;9.47;3.93;;;;;;;11.07;100.00;96062.16;5038712;28;20209;-68
2023/11/20 06:04:53;;;;;;;5.73;2.07;;;;;;;10.93;100.00;96065.63;5038504;28;20217;-67
2023/11/20 06:07:20;;;;;;;5.03;1.27;;;;;;;10.95;100.00;96074.13;5040226;28;20215;-68
2023/11/20 06:09:46;;;;;;;2.27;1.10;;;;;;;11.11;100.00;96073.97;5039242;28;20667;-68
2023/11/20 06:12:13;;;;;;;0.93;0.90;;;;;;;11.08;100.00;96074.31;5038601;28;20209;-69
2023/11/20 06:14:42;;;;;;;0.90;0.70;;;;;;;11.37;100.00;96082.19;5039157;28;20221;-68
2023/11/20 06:17:08;;;;;;;1.57;1.10;;;;;;;11.24;100.00;96074.13;5039232;28;20780;-69
2023/11/20 06:19:35;;;;;;;3.03;1.10;;;;;;;11.18;100.00;96077.47;5039062;28;20340;-68
2023/11/20 06:22:02;;;;;;;1.23;1.00;;;;;;;11.24;100.00;96076.75;5039794;28;20221;-67
2023/11/20 06:24:28;;;;;;;0.73;0.73;;;;;;;11.29;100.00;96084.94;5039637;28;20225;-69
2023/11/20 06:26:55;;;;;;;3.97;1.10;;;;;;;11.35;100.00;96078.88;5038765;28;20229;-69
2023/11/20 06:29:22;;;;;;;4.17;1.30;;;;;;;11.37;100.00;96082.19;5038162;28;20201;-69
2023/11/20 06:31:50;;;;;;;1.30;0.93;;;;;;;11.49;100.00;96085.16;5038578;28;20212;-68
2023/11/20 06:34:16;;;;;;;1.13;1.00;;;;;;;11.33;100.00;96080.06;5038735;28;20267;-69
2023/11/20 06:36:43;;;;;;;2.77;1.07;;;;;;;11.26;100.00;96093.19;5038038;28;20210;-69
2023/11/20 06:39:10;;;;;;;4.20;1.20;;;;;;;11.14;100.00;96081.50;5038397;28;20703;-68
2023/11/20 06:41:37;;;;;;;1.60;0.90;;;;;;;11.33;100.00;96082.72;5038992;28;20201;-67
2023/11/20 06:44:05;;;;;;;3.30;1.30;;;;;;;11.44;100.00;96090.97;5037728;28;20247;-69
2023/11/20 06:46:32;;;;;;;1.67;1.20;;;;;;;11.51;100.00;96080.53;5037594;28;20283;-69
2023/11/20 06:49:00;;;;;;;3.37;0.93;;;;;;;11.56;100.00;96078.97;5038261;28;20687;-69
2023/11/20 06:51:27;;;;;;;1.70;1.03;;;;;;;11.48;100.00;96084.34;5037028;28;20205;-68
2023/11/20 06:53:55;;;;;;;2.40;1.20;;;;;;;11.46;100.00;96083.69;5037196;28;20845;-68
2023/11/20 06:56:22;;;;;;;1.80;1.27;;;;;;;11.44;100.00;96080.41;5037130;28;20243;-69
2023/11/20 06:58:48;;;;;;;1.00;0.87;;;;;;;11.47;100.00;96082.72;5038292;28;20228;-68
2023/11/20 07:01:16;;;;;;;3.97;0.97;;;;;;;11.43;100.00;96086.72;5037739;28;20201;-69
2023/11/20 07:03:43;;;;;;;4.30;1.20;;;;;;;11.56;100.00;96089.53;5037831;28;20287;-68
2023/11/20 07:06:12;;;;;;;3.07;1.00;;;;;;;11.63;100.00;96080.69;5036455;28;20229;-67
2023/11/20 07:08:38;;;;;;;1.70;0.80;;;;;;;11.44;100.00;96087.53;5037832;28;20201;-68
2023/11/20 07:11:05;;;;;;;6.43;1.20;;;;;;;11.49;100.00;96098.34;5037902;28;20228;-67
2023/11/20 07:13:31;;;;;;;3.57;0.90;;;;;;;11.41;100.00;96096.63;5037573;28;20201;-67
2023/11/20 07:15:58;;;;;;;5.53;1.07;;;;;;;11.57;100.00;96102.53;5037232;28;20217;-67
2023/11/20 07:18:25;;;;;;;5.47;1.40;;;;;;;11.35;100.00;96113.19;5037990;28;20221;-67
2023/11/20 07:20:52;;;;;;;1.13;1.00;;;;;;;11.39;100.00;96111.84;5037292;28;20205;-67
2023/11/20 07:23:20;;;;;;;6.87;1.23;;;;;;;11.37;100.00;96116.47;5037859;28;20205;-67
2023/11/20 07:25:46;;;;;;;4.20;1.07;;;;;;;11.39;100.00;96111.84;5036471;28;20224;-67
2023/11/20 07:28:12;;;;;;;1.53;1.10;;;;;;;11.33;100.00;96115.22;5037693;28;20238;-67
2023/11/20 07:30:39;;;;;;;2.73;1.20;;;;;;;11.47;100.00;96111.72;5037820;28;20324;-68
2023/11/20 07:33:05;;;;;;;4.87;1.10;;;;;;;11.26;100.00;96109.00;5038291;28;20212;-67
2023/11/20 07:35:32;;;;;;;1.40;1.03;;;;;;;11.52;100.00;96117.31;5035847;28;20233;-67
2023/11/20 07:37:58;;;;;;;2.50;1.03;;;;;;;11.57;100.00;96104.38;5036493;28;20201;-67
2023/11/20 07:40:26;;;;;;;3.07;1.37;;;;;;;11.72;100.00;96111.25;5038222;28;20208;-68
2023/11/20 07:42:54;;;;;;;2.50;1.10;;;;;;;11.68;100.00;96104.72;5037240;28;20216;-68
2023/11/20 07:45:20;;;;;;;4.10;1.00;;;;;;;11.54;100.00;96102.09;5035863;28;20229;-67
2023/11/20 07:47:47;;;;;;;2.70;1.07;;;;;;;11.51;100.00;96091.06;5037721;28;20603;-67
2023/11/20 07:50:14;;;;;;;6.77;1.20;;;;;;;11.51;100.00;96091.91;5037009;28;20305;-67
2023/11/20 07:52:42;;;;;;;2.60;1.27;;;;;;;11.49;100.00;96093.06;5036356;28;20216;-67
2023/11/20 07:55:10;;;;;;;1.73;0.97;;;;;;;11.54;100.00;96096.00;5035852;28;20217;-67
2023/11/20 07:57:38;;;;;;;6.03;1.20;;;;;;;11.69;100.00;96094.94;5037073;28;20275;-67
2023/11/20 08:00:06;;;;;;;4.30;1.10;;;;;;;11.71;100.00;96088.47;5036813;28;20220;-67
2023/11/20 08:02:32;;;;;;;6.80;1.10;;;;;;;11.65;100.00;96076.03;5037276;28;20213;-67
2023/11/20 08:04:59;;;;;;;1.60;0.97;;;;;;;11.52;100.00;96088.28;5036731;28;20405;-67
2023/11/20 08:07:26;;;;;;;1.70;1.20;;;;;;;11.57;100.00;96083.25;5037335;28;20259;-67
2023/11/20 08:09:52;;;;;;;5.07;1.77;;;;;;;11.62;100.00;96083.50;5036205;28;20213;-67
2023/11/20 08:12:19;;;;;;;1.33;1.00;;;;;;;11.53;100.00;96081.16;5037303;28;20757;-67
2023/11/20 08:14:47;;;;;;;3.53;0.90;;;;;;;11.70;100.00;96080.75;5036156;28;20224;-67
2023/11/20 08:17:13;;;;;;;4.27;0.80;;;;;;;11.62;100.00;96088.78;5036175;28;20251;-67
2023/11/20 08:19:40;;;;;;;2.20;0.80;;;;;;;11.64;100.00;96078.84;5036229;28;20228;-67
2023/11/20 08:22:06;;;;;;;4.30;0.80;;;;;;;11.78;100.00;96083.28;5036837;28;20240;-67
2023/11/20 08:24:33;;;;;;;2.00;0.60;;;;;;;11.72;100.00;96082.22;5036271;28;20240;-67
2023/11/20 08:26:59;;;;;;;2.37;0.67;;;;;;;11.75;100.00;96089.75;5036016;28;20202;-67
2023/11/20 08:29:27;;;;;;;1.20;0.70;;;;;;;11.72;100.00;96086.66;5036380;28;20204;-67
2023/11/20 08:31:55;;;;;;;2.77;0.97;;;;;;;11.87;100.00;96082.13;5036550;28;20209;-67
2023/11/20 08:34:22;;;;;;;2.00;0.73;;;;;;;11.82;100.00;96087.16;5036246;28;20221;-67
2023/11/20 08:36:48;;;;;;;5.00;0.90;;;;;;;11.86;100.00;96072.56;5036425;28;20738;-67
2023/11/20 08:39:14;;;;;;;3.63;0.80;;;;;;;11.95;100.00;96084.66;5036463;28;20228;-67
2023/11/20 08:41:41;;;;;;;1.33;0.70;;;;;;;11.93;100.00;96082.19;5036694;28;20201;-67
2023/11/20 08:44:08;;;;;;;2.57;0.90;;;;;;;12.10;100.00;96088.84;5035863;28;20711;-67
2023/11/20 08:46:35;;;;;;;8.03;1.37;;;;;;;11.86;100.00;96091.06;5035579;28;20205;-67
2023/11/20 08:49:06;;;;;;;1.80;0.73;;;;;;;12.00;100.00;96085.72;5036715;28;20208;-67
2023/11/20 08:51:33;;;;;;;2.73;0.87;;;;;;;12.07;100.00;96083.97;5035978;28;20225;-67
2023/11/20 08:53:59;;;;;;;3.70;0.73;;;;;;;11.99;100.00;96081.47;5035856;28;20198;-68
2023/11/20 08:56:26;;;;;;;4.07;1.10;;;;;;;12.05;100.00;96085.97;5035451;28;20205;-67
2023/11/20 08:58:52;;;;;;;1.67;0.80;;;;;;;12.09;100.00;96081.94;5036141;28;21267;-67
2023/11/20 09:01:30;;;;;;;1.90;1.00;;;;;;;12.32;100.00;96078.09;5036742;28;20205;-67
2023/11/20 09:03:56;;;;;;;3.30;0.93;;;;;;;12.02;100.00;96070.50;5035397;28;20215;-67
2023/11/20 09:06:24;;;;;;;1.10;0.70;;;;;;;12.30;100.00;96074.81;5035649;28;20224;-67
2023/11/20 09:08:50;;;;;;;3.43;0.90;;;;;;;12.27;100.00;96074.34;5035805;28;20251;-68
2023/11/20 09:11:17;;;;;;;5.47;1.03;;;;;;;12.23;100.00;96073.94;5035733;28;20205;-68
2023/11/20 09:13:44;;;;;;;1.70;0.60;;;;;;;12.31;100.00;96065.88;5035320;28;20518;-69
2023/11/20 09:16:10;;;;;;;1.00;0.60;;;;;;;12.17;100.00;96074.69;5035136;28;20242;-69
2023/11/20 09:18:37;;;;;;;1.33;0.73;;;;;;;12.45;100.00;96078.19;5035164;28;20240;-69
2023/11/20 09:21:05;;;;;;;0.60;0.60;;;;;;;12.42;100.00;96073.28;5034922;28;20201;-69
2023/11/20 09:23:33;;;;;;;2.53;0.50;;;;;;;12.58;100.00;96065.06;5035379;28;20255;-69
2023/11/20 09:25:59;;;;;;;1.97;0.80;;;;;;;12.40;100.00;96077.94;5034995;28;20237;-68
2023/11/20 09:28:26;;;;;;;9.00;1.83;;;;;;;12.47;100.00;96081.44;5035302;28;20919;-68
2023/11/20 09:30:53;;;;;;;5.47;1.80;;;;;;;12.42;100.00;96081.22;5035974;28;20197;-67
2023/11/20 09:33:19;;;;;;;1.57;0.90;;;;;;;12.33;100.00;96074.44;5035744;28;20259;-69
2023/11/20 09:35:46;;;;;;;5.90;2.57;;;;;;;12.39;100.00;96073.66;5035489;28;20233;-68
2023/11/20 09:38:13;;;;;;;1.90;1.10;;;;;;;12.34;100.00;96069.97;5035954;28;20900;-68
2023/11/20 09:40:42;;;;;;;0.70;0.60;;;;;;;12.67;100.00;96077.13;5035841;28;20225;-69
2023/11/20 09:43:11;;;;;;;1.53;1.13;;;;;;;12.61;100.00;96069.94;5035812;28;20208;-69
2023/11/20 09:45:41;;;;;;;1.90;0.90;;;;;;;12.78;100.00;96058.88;5034885;28;20225;-68
2023/11/20 09:48:07;;;;;;;1.87;0.60;;;;;;;12.56;100.00;96053.03;5035459;28;20205;-67
2023/11/20 09:50:37;;;;;;;4.10;0.73;;;;;;;12.74;100.00;96051.56;5034047;28;20675;-67
2023/11/20 09:53:08;;;;;;;1.07;0.70;;;;;;;12.90;100.00;96052.06;5034938;28;20201;-67
2023/11/20 09:55:34;;;;;;;5.43;0.90;;;;;;;12.77;100.00;96051.16;5033747;28;20316;-66
2023/11/20 09:58:03;;;;;;;1.27;0.77;;;;;;;12.80;100.00;96048.94;5034120;28;20206;-68
2023/11/20 10:00:30;;;;;;;2.27;0.80;;;;;;;12.97;100.00;96042.34;5034996;28;20844;-68
2023/11/20 10:02:57;;;;;;;2.00;0.80;;;;;;;13.26;100.00;96044.69;5035676;28;20205;-67
2023/11/20 10:05:28;;;;;;;1.70;0.70;;;;;;;13.33;100.00;96036.78;5037107;28;20240;-67
2023/11/20 10:07:58;;;;;;;1.13;0.57;;;;;;;13.33;100.00;96037.63;5036661;28;20205;-65
2023/11/20 10:10:26;;;;;;;0.50;0.50;;;;;;;12.80;100.00;96042.81;5036453;28;20212;-68
2023/11/20 10:12:54;;;;;;;2.60;0.63;;;;;;;12.84;100.00;96030.84;5035682;28;20545;-68
2023/11/20 10:15:22;;;;;;;2.53;1.30;;;;;;;12.89;100.00;96034.59;5034617;28;20275;-67
2023/11/20 10:17:48;;;;;;;1.80;0.70;;;;;;;12.64;100.00;96037.03;5034236;28;20205;-68
2023/11/20 10:20:16;;;;;;;1.70;0.80;;;;;;;12.95;100.00;96043.56;5034213;28;20220;-67
2023/11/20 10:22:44;;;;;;;0.57;0.57;;;;;;;13.05;100.00;96028.94;5034595;28;20209;-67
2023/11/20 10:25:11;;;;;;;1.20;0.77;;;;;;;13.00;100.00;96019.97;5033529;28;20233;-69
2023/11/20 10:27:38;;;;;;;3.77;0.97;;;;;;;13.09;100.00;96030.19;5035008;28;20960;-68
2023/11/20 10:30:09;;;;;;;2.80;1.10;;;;;;;13.23;100.00;96015.19;5034252;28;20206;-69
2023/11/20 10:32:37;;;;;;;4.70;0.60;;;;;;;13.50;100.00;96012.41;5034549;28;20201;-66
2023/11/20 10:35:14;;;;;;;4.50;1.37;;;;;;;13.41;100.00;96025.00;5033764;28;20218;-69
2023/11/20 10:37:53;;;;;;;1.53;0.80;;;;;;;13.49;100.00;96006.31;5034216;28;20215;-69
2023/11/20 10:40:20;;;;;;;3.70;1.07;;;;;;;13.09;100.00;96002.94;5035912;28;20484;-68
2023/11/20 10:42:46;;;;;;;5.00;0.60;;;;;;;13.28;100.00;96003.00;5037970;28;20200;-68
2023/11/20 10:45:13;;;;;;;1.93;1.00;;;;;;;13.15;100.00;96007.41;5036738;28;20275;-68
2023/11/20 10:47:41;;;;;;;1.60;0.90;;;;;;;13.16;99.95;95988.72;5037972;28;20205;-67
2023/11/20 10:50:11;;;;;;;0.70;0.60;;;;;;;13.25;100.00;95991.97;5037619;28;20201;-66
2023/11/20 10:52:41;;;;;;;1.70;0.73;;;;;;;13.33;100.00;95983.84;5038408;28;20205;-67
2023/11/20 10:55:11;;;;;;;6.10;1.40;;;;;;;13.46;100.00;95984.72;5037217;28;20225;-69
2023/11/20 10:57:38;;;;;;;1.00;0.57;;;;;;;13.28;100.00;95987.09;5037587;28;20247;-68
2023/11/20 11:00:10;;;;;;;1.73;0.63;;;;;;;13.59;100.00;95990.88;5036585;28;20606;-67
2023/11/20 11:02:37;;;;;;;1.20;0.70;;;;;;;13.81;100.00;95984.38;5036852;28;20328;-68
2023/11/20 11:05:08;;;;;;;2.20;0.50;;;;;;;13.86;98.44;95981.94;5036403;28;20275;-68
2023/11/20 11:07:39;;;;;;;1.77;0.83;;;;;;;13.64;97.88;95974.34;5037506;28;20691;-67
2023/11/20 11:10:10;;;;;;;0.70;0.50;;;;;;;13.44;98.67;95976.13;5037008;28;20202;-66
2023/11/20 11:12:41;;;;;;;5.10;0.80;;;;;;;13.62;97.59;95968.44;5038460;28;20212;-67
2023/11/20 11:15:12;;;;;;;1.40;0.63;;;;;;;13.40;96.83;95973.09;5037144;28;20217;-69
2023/11/20 11:17:46;;;;;;;2.70;1.33;;;;;;;13.82;95.81;95969.28;5038488;28;20294;-68
2023/11/20 11:20:18;;;;;;;4.47;0.90;;;;;;;13.63;95.08;95965.63;5038303;28;20229;-67
2023/11/20 11:22:53;;;;;;;4.17;0.80;;;;;;;13.78;94.94;95963.56;5038426;28;20258;-66
2023/11/20 11:25:26;;;;;;;1.83;0.90;;;;;;;13.71;94.19;95953.97;5037619;28;20231;-69